Time;durP1;ratioP1;P1;durP2;ratioP2;P2;SDS_P1;SDS_P2;PMS_P1;PMS_P2;Temp;Humidity;BMP_temperature;BMP_pressure;BME280_temperature;BME280_humidity;BME280_pressure;Samples;Min_cycle;Max_cycle;Signal;HPM_P1;HPM_P2
2022/11/11 00:00:16;;;;;;;12.57;6.63;;;;;;;;;;5072450;28;20181;-69
2022/11/11 00:02:42;;;;;;;10.43;7.20;;;;;;;;;;5072602;28;20634;-68
2022/11/11 00:05:08;;;;;;;11.20;8.70;;;;;;;;;;5074147;28;20177;-68
2022/11/11 00:07:34;;;;;;;14.70;6.90;;;;;;;;;;5074250;28;20277;-70
2022/11/11 00:10:00;;;;;;;10.53;6.63;;;;;;;;;;5072084;28;20268;-69
2022/11/11 00:12:26;;;;;;;11.77;6.40;;;;;;;;;;5071932;28;20660;-69
2022/11/11 00:14:52;;;;;;;12.50;6.57;;;;;;;;;;5071994;28;20658;-68
2022/11/11 00:25:31;;;;;;;13.47;6.90;;;;;;;;;;5073452;28;20165;-70
2022/11/11 00:27:57;;;;;;;10.47;6.57;;;;;;;;;;5072937;28;20214;-68
2022/11/11 00:30:23;;;;;;;14.60;6.70;;;;;;;;;;5071892;28;20178;-69
2022/11/11 00:32:49;;;;;;;13.03;7.37;;;;;;;;;;5072886;28;20185;-68
2022/11/11 00:38:06;;;;;;;16.33;7.23;;;;;;;;;;5072929;28;20603;-69
2022/11/11 00:40:32;;;;;;;12.27;7.10;;;;;;;;;;5073023;28;20256;-69
2022/11/11 00:42:58;;;;;;;11.90;6.77;;;;;;;;;;5074345;28;20271;-69
2022/11/11 00:45:24;;;;;;;10.70;6.93;;;;;;;;;;5074600;28;20174;-69
2022/11/11 00:53:23;;;;;;;18.97;7.57;;;;;;;;;;5073111;28;20734;-69
2022/11/11 00:55:49;;;;;;;11.63;7.37;;;;;;;;;;5071536;28;20719;-69
2022/11/11 00:58:18;;;;;;;13.17;7.13;;;;;;;;;;5073043;28;20203;-69
2022/11/11 01:00:44;;;;;;;13.53;6.97;;;;;;;;;;5071574;28;20723;-68
2022/11/11 01:03:10;;;;;;;12.33;7.07;;;;;;;;;;5071664;28;20531;-69
2022/11/11 01:05:39;;;;;;;11.93;7.73;;;;;;;;;;5076897;28;20185;-69
2022/11/11 01:08:05;;;;;;;13.73;8.00;;;;;;;;;;5076574;28;20243;-69
2022/11/11 01:10:37;;;;;;;10.63;6.90;;;;;;;;;;5076400;28;20585;-68
2022/11/11 01:13:26;;;;;;;17.23;7.43;;;;;;;;;;5075190;28;20206;-69
2022/11/11 01:15:53;;;;;;;14.50;7.87;;;;;;;;;;5068506;28;20708;-69
2022/11/11 01:18:21;;;;;;;12.57;7.13;;;;;;;;;;5076299;28;20170;-70
2022/11/11 01:20:47;;;;;;;11.33;7.50;;;;;;;;;;5075090;28;20210;-70
2022/11/11 01:23:14;;;;;;;14.97;7.70;;;;;;;;;;5076271;28;20185;-70
2022/11/11 01:25:41;;;;;;;10.43;7.13;;;;;;;;;;5076464;28;20538;-70
2022/11/11 01:28:08;;;;;;;12.90;7.43;;;;;;;;;;5076108;28;20225;-69
2022/11/11 01:30:34;;;;;;;12.60;7.93;;;;;;;;;;5076151;28;20548;-70
2022/11/11 01:33:01;;;;;;;16.60;8.27;;;;;;;;;;5075965;28;20213;-70
2022/11/11 01:35:27;;;;;;;13.53;7.87;;;;;;;;;;5074787;28;20558;-70
2022/11/11 01:37:53;;;;;;;12.40;7.70;;;;;;;;;;5074672;28;20201;-70
2022/11/11 01:40:19;;;;;;;13.73;7.70;;;;;;;;;;5074732;28;20599;-70
2022/11/11 01:42:47;;;;;;;14.27;7.93;;;;;;;;;;5074626;28;20638;-70
2022/11/11 01:45:31;;;;;;;11.57;7.53;;;;;;;;;;5074601;28;20569;-70
2022/11/11 01:50:42;;;;;;;10.90;7.50;;;;;;;;;;5075916;28;20173;-70
2022/11/11 01:53:08;;;;;;;11.77;7.63;;;;;;;;;;5074504;28;20213;-70
2022/11/11 01:55:34;;;;;;;14.87;7.30;;;;;;;;;;5074499;28;20174;-70
2022/11/11 01:58:02;;;;;;;14.57;7.80;;;;;;;;;;5074296;28;20292;-69
2022/11/11 02:00:27;;;;;;;13.30;7.60;;;;;;;;;;5076067;28;20177;-70
2022/11/11 02:03:03;;;;;;;8.83;7.23;;;;;;;;;;5076203;28;20623;-70
2022/11/11 02:05:42;;;;;;;13.60;7.77;;;;;;;;;;5075615;28;20197;-69
2022/11/11 02:08:40;;;;;;;14.90;8.23;;;;;;;;;;5075810;28;20219;-69
2022/11/11 02:11:06;;;;;;;15.10;8.20;;;;;;;;;;5042323;28;20273;-69
2022/11/11 02:16:17;;;;;;;14.93;8.40;;;;;;;;;;5074931;28;20259;-70
2022/11/11 02:18:43;;;;;;;14.23;8.03;;;;;;;;;;5075642;28;20174;-69
2022/11/11 02:21:14;;;;;;;18.27;8.60;;;;;;;;;;5075557;28;20185;-69
2022/11/11 02:23:46;;;;;;;12.77;8.57;;;;;;;;;;5075713;28;20189;-69
2022/11/11 02:26:13;;;;;;;15.73;8.27;;;;;;;;;;5074802;28;20213;-70
2022/11/11 02:28:40;;;;;;;15.27;8.23;;;;;;;;;;5075681;28;20166;-69
2022/11/11 02:31:08;;;;;;;12.83;8.40;;;;;;;;;;5074879;28;20269;-70
2022/11/11 02:33:34;;;;;;;16.63;8.20;;;;;;;;;;5076185;28;20197;-70
2022/11/11 02:36:01;;;;;;;15.60;8.90;;;;;;;;;;5074988;28;20718;-70
2022/11/11 02:38:28;;;;;;;16.50;8.70;;;;;;;;;;5075329;28;20170;-69
2022/11/11 02:43:39;;;;;;;16.00;9.20;;;;;;;;;;5075219;28;20197;-70
2022/11/11 02:46:06;;;;;;;15.97;9.30;;;;;;;;;;5074726;28;20670;-70
2022/11/11 02:48:32;;;;;;;14.50;9.17;;;;;;;;;;5074794;28;20252;-70
2022/11/11 02:50:57;;;;;;;12.53;9.10;;;;;;;;;;5074852;28;20222;-70
2022/11/11 02:53:24;;;;;;;17.13;9.20;;;;;;;;;;5075214;28;20319;-70
2022/11/11 02:55:50;;;;;;;17.33;10.03;;;;;;;;;;5073188;28;20182;-69
2022/11/11 02:58:16;;;;;;;20.67;10.13;;;;;;;;;;5074578;28;20646;-70
2022/11/11 03:00:42;;;;;;;16.70;9.60;;;;;;;;;;5074643;28;20181;-70
2022/11/11 03:03:08;;;;;;;15.60;9.73;;;;;;;;;;5074900;28;20177;-70
2022/11/11 03:05:34;;;;;;;20.10;9.20;;;;;;;;;;5073162;28;20185;-70
2022/11/11 03:08:00;;;;;;;20.07;9.83;;;;;;;;;;5074342;28;20198;-69
2022/11/11 03:10:26;;;;;;;16.30;9.40;;;;;;;;;;5074537;28;20184;-70
2022/11/11 03:12:52;;;;;;;21.90;10.27;;;;;;;;;;5074223;28;20182;-70
2022/11/11 03:15:18;;;;;;;20.33;9.43;;;;;;;;;;5072789;28;20280;-70
2022/11/11 03:17:44;;;;;;;15.53;10.17;;;;;;;;;;5074399;28;20244;-70
2022/11/11 03:23:03;;;;;;;21.17;10.57;;;;;;;;;;5074375;28;20665;-70
2022/11/11 03:25:38;;;;;;;17.13;9.77;;;;;;;;;;5072505;28;20653;-69
2022/11/11 03:28:08;;;;;;;15.90;9.87;;;;;;;;;;5072180;28;20213;-70
2022/11/11 03:30:34;;;;;;;18.37;9.87;;;;;;;;;;5073855;28;20169;-70
2022/11/11 03:33:00;;;;;;;13.70;10.33;;;;;;;;;;5072782;28;20211;-69
2022/11/11 03:35:26;;;;;;;15.83;9.53;;;;;;;;;;5073940;28;20174;-70
2022/11/11 03:40:37;;;;;;;16.13;10.17;;;;;;;;;;5073767;28;20185;-70
2022/11/11 03:43:03;;;;;;;18.47;10.17;;;;;;;;;;5073640;28;20642;-69
2022/11/11 03:45:29;;;;;;;16.87;9.70;;;;;;;;;;5074174;28;20669;-70
2022/11/11 03:47:55;;;;;;;13.97;9.67;;;;;;;;;;5073974;28;20197;-70
2022/11/11 03:50:21;;;;;;;16.57;9.60;;;;;;;;;;5072126;28;20703;-70
2022/11/11 03:52:47;;;;;;;13.93;9.27;;;;;;;;;;5074020;28;20184;-70
2022/11/11 03:55:13;;;;;;;18.53;10.30;;;;;;;;;;5072099;28;20205;-70
2022/11/11 03:57:40;;;;;;;16.13;9.30;;;;;;;;;;5073454;28;20205;-70
2022/11/11 04:00:06;;;;;;;13.83;10.20;;;;;;;;;;5073498;28;20193;-70
2022/11/11 04:10:46;;;;;;;14.60;10.20;;;;;;;;;;5074087;28;20223;-69
2022/11/11 04:16:06;;;;;;;16.33;10.83;;;;;;;;;;5073459;28;20592;-69
2022/11/11 04:24:02;;;;;;;18.40;11.30;;;;;;;;;;5073482;28;20172;-71
2022/11/11 04:26:28;;;;;;;18.43;11.90;;;;;;;;;;5073100;28;20221;-70
2022/11/11 04:29:27;;;;;;;15.63;11.50;;;;;;;;;;5073369;28;20177;-70
2022/11/11 04:34:31;;;;;;;19.53;11.50;;;;;;;;;;5073137;28;20693;-70
2022/11/11 04:36:57;;;;;;;17.53;10.37;;;;;;;;;;5073254;28;20197;-69
2022/11/11 04:42:07;;;;;;;18.70;11.20;;;;;;;;;;5077437;28;20583;-69
2022/11/11 04:47:17;;;;;;;20.77;11.67;;;;;;;;;;5076950;28;20232;-69
2022/11/11 04:49:43;;;;;;;19.73;11.47;;;;;;;;;;5076824;28;20231;-70
2022/11/11 04:52:30;;;;;;;16.97;11.43;;;;;;;;;;5077047;28;20177;-70
2022/11/11 04:57:42;;;;;;;19.87;12.23;;;;;;;;;;5076687;28;20208;-70
2022/11/11 05:00:08;;;;;;;16.00;11.77;;;;;;;;;;5075335;28;20177;-70
2022/11/11 05:05:19;;;;;;;14.23;11.47;;;;;;;;;;5076969;28;20219;-69
2022/11/11 05:10:29;;;;;;;19.07;12.07;;;;;;;;;;5077699;28;20200;-69
2022/11/11 05:21:19;;;;;;;15.03;11.60;;;;;;;;;;5079055;28;20256;-69
2022/11/11 05:21:22;;;;;;;17.50;11.73;;;;;;;;;;5076550;28;20224;-70
2022/11/11 05:26:34;;;;;;;18.00;12.57;;;;;;;;;;5076292;28;20223;-70
2022/11/11 05:29:00;;;;;;;16.33;11.50;;;;;;;;;;5076503;28;20622;-69
2022/11/11 05:31:26;;;;;;;18.03;12.50;;;;;;;;;;5076435;28;20182;-69
2022/11/11 05:33:52;;;;;;;21.47;14.07;;;;;;;;;;5076284;28;20202;-69
2022/11/11 05:36:17;;;;;;;18.07;14.50;;;;;;;;;;5075715;28;20201;-69
2022/11/11 05:38:43;;;;;;;20.43;13.03;;;;;;;;;;5075994;28;20178;-69
2022/11/11 05:41:09;;;;;;;18.37;14.27;;;;;;;;;;5075771;28;20230;-69
2022/11/11 05:43:35;;;;;;;21.13;14.40;;;;;;;;;;5074322;28;20189;-69
2022/11/11 05:46:01;;;;;;;22.17;12.13;;;;;;;;;;5075582;28;20207;-69
2022/11/11 05:48:27;;;;;;;17.50;11.30;;;;;;;;;;5075508;28;20178;-69
2022/11/11 05:50:53;;;;;;;18.60;11.47;;;;;;;;;;5075660;28;20627;-69
2022/11/11 05:53:22;;;;;;;14.33;11.43;;;;;;;;;;5074092;28;20209;-69
2022/11/11 05:55:49;;;;;;;17.30;12.67;;;;;;;;;;5075478;28;20178;-69
2022/11/11 05:58:16;;;;;;;18.83;12.60;;;;;;;;;;5074397;28;20698;-69
2022/11/11 06:00:42;;;;;;;18.77;12.00;;;;;;;;;;5074422;28;20181;-69
2022/11/11 06:03:08;;;;;;;18.07;12.47;;;;;;;;;;5088618;22;20230;-64
2022/11/11 06:05:35;;;;;;;20.73;12.67;;;;;;;;;;5037513;28;20651;-65
2022/11/11 06:08:01;;;;;;;21.40;13.33;;;;;;;;;;5055463;28;20179;-65
2022/11/11 06:10:30;;;;;;;21.00;13.20;;;;;;;;;;5055566;28;20609;-65
2022/11/11 06:13:08;;;;;;;21.33;12.93;;;;;;;;;;5055250;28;20273;-64
2022/11/11 06:15:35;;;;;;;21.77;14.07;;;;;;;;;;5055641;28;20183;-65
2022/11/11 06:18:01;;;;;;;19.93;13.80;;;;;;;;;;5055422;28;20183;-66
2022/11/11 06:20:27;;;;;;;19.53;12.40;;;;;;;;;;5055103;28;20231;-66
2022/11/11 06:22:56;;;;;;;21.27;14.10;;;;;;;;;;5055156;28;20222;-65
2022/11/11 06:28:13;;;;;;;21.83;13.63;;;;;;;;;;5055265;28;20182;-67
2022/11/11 06:30:40;;;;;;;21.30;13.70;;;;;;;;;;5055156;28;20175;-65
2022/11/11 06:33:09;;;;;;;19.17;12.53;;;;;;;;;;5055393;28;20190;-65
2022/11/11 06:35:39;;;;;;;17.80;11.90;;;;;;;;;;5054931;28;20308;-64
2022/11/11 06:38:06;;;;;;;19.73;11.80;;;;;;;;;;5036922;28;20269;-66
2022/11/11 06:40:32;;;;;;;20.80;12.27;;;;;;;;;;5055074;28;20181;-65
2022/11/11 06:42:58;;;;;;;22.33;12.53;;;;;;;;;;5054934;28;20190;-65
2022/11/11 06:45:25;;;;;;;16.60;11.60;;;;;;;;;;5054916;28;20258;-64
2022/11/11 06:47:51;;;;;;;16.73;11.73;;;;;;;;;;5055199;28;20179;-66
2022/11/11 06:50:17;;;;;;;17.33;11.43;;;;;;;;;;5036895;28;20181;-64
2022/11/11 06:52:43;;;;;;;15.70;10.57;;;;;;;;;;5054914;28;20273;-66
2022/11/11 06:55:09;;;;;;;15.67;10.73;;;;;;;;;;5036976;28;20639;-65
2022/11/11 06:57:36;;;;;;;14.07;10.50;;;;;;;;;;5037156;28;20205;-64
2022/11/11 07:00:02;;;;;;;14.63;10.40;;;;;;;;;;5055666;28;20198;-65
2022/11/11 07:02:28;;;;;;;17.47;9.93;;;;;;;;;;5054122;28;20294;-65
2022/11/11 07:04:54;;;;;;;16.60;10.60;;;;;;;;;;5036811;28;20183;-64
2022/11/11 07:07:20;;;;;;;14.47;9.63;;;;;;;;;;5037047;28;20178;-65
2022/11/11 07:09:46;;;;;;;13.13;10.10;;;;;;;;;;5036692;28;20345;-65
2022/11/11 07:12:12;;;;;;;17.57;9.83;;;;;;;;;;5054674;28;20574;-65
2022/11/11 07:14:38;;;;;;;14.77;9.67;;;;;;;;;;5036682;28;20573;-64
2022/11/11 07:17:04;;;;;;;14.07;9.57;;;;;;;;;;5054496;28;20689;-65
2022/11/11 07:19:30;;;;;;;16.63;9.90;;;;;;;;;;5054136;28;20532;-65
2022/11/11 07:21:56;;;;;;;16.97;10.10;;;;;;;;;;5054147;28;20202;-65
2022/11/11 07:24:22;;;;;;;16.43;10.83;;;;;;;;;;5054039;28;20185;-64
2022/11/11 07:26:47;;;;;;;15.87;10.30;;;;;;;;;;5054244;28;20654;-66
2022/11/11 07:29:14;;;;;;;15.77;10.00;;;;;;;;;;5054183;28;20183;-65
2022/11/11 07:31:40;;;;;;;14.67;9.83;;;;;;;;;;5053829;28;20177;-65
2022/11/11 07:34:06;;;;;;;14.73;10.37;;;;;;;;;;5053918;28;20198;-65
2022/11/11 07:36:32;;;;;;;15.53;10.47;;;;;;;;;;5053875;28;20182;-66
2022/11/11 07:38:58;;;;;;;17.10;11.87;;;;;;;;;;5053848;28;20174;-64
2022/11/11 07:41:24;;;;;;;22.53;12.70;;;;;;;;;;5053737;28;20178;-66
2022/11/11 07:43:50;;;;;;;21.50;13.37;;;;;;;;;;5053615;28;20245;-65
2022/11/11 07:46:16;;;;;;;21.67;13.60;;;;;;;;;;5035678;28;20187;-65
2022/11/11 07:48:42;;;;;;;18.53;13.20;;;;;;;;;;5035721;28;20277;-64
2022/11/11 07:51:08;;;;;;;24.13;13.63;;;;;;;;;;5053762;28;20189;-65
2022/11/11 07:53:34;;;;;;;20.23;12.90;;;;;;;;;;5035510;28;20201;-65
2022/11/11 07:56:00;;;;;;;24.23;13.07;;;;;;;;;;5053699;28;20175;-64
2022/11/11 07:58:26;;;;;;;21.43;13.53;;;;;;;;;;5053479;28;20175;-65
2022/11/11 08:00:52;;;;;;;19.23;11.60;;;;;;;;;;5053482;28;20246;-65
2022/11/11 08:03:18;;;;;;;17.87;10.13;;;;;;;;;;5053343;28;20704;-66
2022/11/11 08:05:44;;;;;;;11.97;8.83;;;;;;;;;;5053414;28;20668;-64
2022/11/11 08:08:10;;;;;;;14.17;8.10;;;;;;;;;;5035506;28;20278;-64
2022/11/11 08:10:36;;;;;;;20.30;12.97;;;;;;;;;;5053411;28;20602;-65
2022/11/11 08:15:47;;;;;;;10.27;7.70;;;;;;;;;;5054401;28;20630;-65
2022/11/11 08:18:13;;;;;;;10.53;6.93;;;;;;;;;;5035348;28;20710;-65
2022/11/11 08:20:39;;;;;;;15.23;7.83;;;;;;;;;;5053383;28;20269;-64
2022/11/11 08:23:09;;;;;;;11.47;7.40;;;;;;;;;;5035269;28;20205;-66
2022/11/11 08:25:35;;;;;;;9.03;6.77;;;;;;;;;;5053177;28;20221;-65
2022/11/11 08:28:03;;;;;;;11.67;6.90;;;;;;;;;;5053046;28;20178;-64
2022/11/11 08:30:29;;;;;;;10.87;7.60;;;;;;;;;;5035260;28;20273;-65
2022/11/11 08:32:58;;;;;;;13.57;7.43;;;;;;;;;;5052995;28;20257;-65
2022/11/11 08:35:25;;;;;;;9.67;6.77;;;;;;;;;;5052926;28;20284;-65
2022/11/11 08:37:51;;;;;;;8.47;6.77;;;;;;;;;;5053055;28;20176;-64
2022/11/11 08:40:17;;;;;;;15.37;7.40;;;;;;;;;;5035231;28;20178;-65
2022/11/11 08:42:43;;;;;;;8.80;7.30;;;;;;;;;;5053530;28;20202;-65
2022/11/11 08:45:09;;;;;;;11.87;6.80;;;;;;;;;;5035291;28;20221;-65
2022/11/11 08:47:36;;;;;;;8.83;6.50;;;;;;;;;;5035124;28;20194;-64
2022/11/11 08:50:02;;;;;;;13.37;8.33;;;;;;;;;;5035093;28;20306;-64
2022/11/11 08:52:28;;;;;;;14.17;8.50;;;;;;;;;;5035126;28;20582;-65
2022/11/11 08:54:54;;;;;;;11.63;7.20;;;;;;;;;;5035000;28;20206;-65
2022/11/11 08:57:20;;;;;;;15.57;7.70;;;;;;;;;;5053079;28;20175;-62
2022/11/11 08:59:47;;;;;;;12.87;7.10;;;;;;;;;;5034903;28;20178;-64
2022/11/11 09:02:13;;;;;;;12.27;7.30;;;;;;;;;;5034823;28;20221;-66
2022/11/11 09:04:40;;;;;;;11.10;6.53;;;;;;;;;;5052706;28;20178;-65
2022/11/11 09:07:07;;;;;;;8.97;6.60;;;;;;;;;;5052714;28;20640;-64
2022/11/11 09:09:33;;;;;;;10.13;7.07;;;;;;;;;;5052909;28;20179;-64
2022/11/11 09:11:59;;;;;;;10.90;6.60;;;;;;;;;;5052577;28;20213;-64
2022/11/11 09:14:24;;;;;;;12.10;6.80;;;;;;;;;;5034799;28;20549;-64
2022/11/11 09:16:50;;;;;;;10.80;7.10;;;;;;;;;;5052686;28;20210;-64
2022/11/11 09:19:16;;;;;;;14.70;6.77;;;;;;;;;;5052644;28;20217;-64
2022/11/11 09:21:42;;;;;;;10.73;6.53;;;;;;;;;;5052460;28;20221;-65
2022/11/11 09:24:08;;;;;;;9.87;6.70;;;;;;;;;;5034586;28;20182;-64
2022/11/11 09:26:34;;;;;;;11.07;7.03;;;;;;;;;;5038316;28;20186;-65
2022/11/11 09:29:00;;;;;;;16.27;7.23;;;;;;;;;;5056221;28;20182;-65
2022/11/11 09:31:26;;;;;;;11.63;7.00;;;;;;;;;;5056069;28;20178;-65
2022/11/11 09:33:52;;;;;;;12.27;7.13;;;;;;;;;;5055935;28;20202;-65
2022/11/11 09:36:18;;;;;;;15.43;7.87;;;;;;;;;;5056169;28;20177;-64
2022/11/11 09:38:44;;;;;;;12.43;7.80;;;;;;;;;;5038140;28;20735;-63
2022/11/11 09:41:21;;;;;;;12.67;7.83;;;;;;;;;;5056002;28;20210;-64
2022/11/11 09:43:52;;;;;;;13.17;7.03;;;;;;;;;;5038134;28;20646;-64
2022/11/11 09:46:37;;;;;;;11.87;6.93;;;;;;;;;;5056309;28;20181;-63
2022/11/11 09:49:22;;;;;;;8.57;5.40;;;;;;;;;;5056052;28;20573;-64
2022/11/11 09:52:06;;;;;;;10.97;6.37;;;;;;;;;;5037762;28;20187;-64
2022/11/11 09:54:35;;;;;;;9.93;6.00;;;;;;;;;;5055793;28;20194;-64
2022/11/11 09:57:03;;;;;;;10.37;8.37;;;;;;;;;;5055697;28;20179;-64
2022/11/11 09:59:32;;;;;;;10.80;6.23;;;;;;;;;;5055775;28;20209;-65
2022/11/11 10:01:58;;;;;;;12.20;6.77;;;;;;;;;;5037902;28;20579;-64
2022/11/11 10:04:43;;;;;;;8.93;6.17;;;;;;;;;;5055592;28;20677;-64
2022/11/11 10:07:13;;;;;;;15.40;6.57;;;;;;;;;;5037688;28;20182;-64
2022/11/11 10:09:44;;;;;;;13.47;8.50;;;;;;;;;;5055979;28;20181;-63
2022/11/11 10:12:11;;;;;;;9.27;6.47;;;;;;;;;;5056037;28;20671;-63
2022/11/11 10:14:39;;;;;;;12.17;6.37;;;;;;;;;;5055492;28;20313;-64
2022/11/11 10:17:09;;;;;;;10.70;6.87;;;;;;;;;;5037382;28;20175;-64
2022/11/11 10:19:47;;;;;;;11.13;5.97;;;;;;;;;;5055356;28;20178;-64
2022/11/11 10:22:24;;;;;;;10.43;6.73;;;;;;;;;;5055058;28;20304;-64
2022/11/11 10:25:01;;;;;;;18.20;6.57;;;;;;;;;;5055140;28;20261;-64
2022/11/11 10:27:27;;;;;;;8.40;5.80;;;;;;;;;;5055428;28;20166;-64
2022/11/11 10:29:53;;;;;;;10.20;7.03;;;;;;;;;;5037210;28;20189;-64
2022/11/11 10:32:25;;;;;;;10.70;6.27;;;;;;;;;;5037150;28;20206;-64
2022/11/11 10:34:51;;;;;;;12.63;6.43;;;;;;;;;;5054933;28;20202;-65
2022/11/11 10:37:19;;;;;;;16.67;6.87;;;;;;;;;;5035969;28;20233;-64
2022/11/11 10:39:45;;;;;;;9.77;5.90;;;;;;;;;;5055074;28;20179;-64
2022/11/11 10:42:16;;;;;;;10.33;6.23;;;;;;;;;;5054991;28;20272;-64
2022/11/11 10:44:43;;;;;;;10.60;5.87;;;;;;;;;;5036907;28;20230;-64
2022/11/11 10:47:09;;;;;;;10.87;5.93;;;;;;;;;;5054944;28;20175;-63
2022/11/11 10:49:38;;;;;;;8.07;5.93;;;;;;;;;;5054664;28;20209;-64
2022/11/11 10:52:04;;;;;;;14.83;6.47;;;;;;;;;;5054633;28;20199;-64
2022/11/11 10:54:35;;;;;;;14.17;6.07;;;;;;;;;;5054436;28;20205;-63
2022/11/11 10:57:00;;;;;;;11.13;5.80;;;;;;;;;;5054928;28;20186;-64
2022/11/11 10:59:53;;;;;;;17.00;6.23;;;;;;;;;;5036627;28;20237;-64
2022/11/11 11:02:20;;;;;;;16.70;6.87;;;;;;;;;;5050623;28;20233;-64
2022/11/11 11:05:03;;;;;;;20.67;6.93;;;;;;;;;;5036444;28;20317;-64
2022/11/11 11:07:43;;;;;;;15.60;7.03;;;;;;;;;;5054404;28;20166;-61
2022/11/11 11:10:17;;;;;;;13.80;6.57;;;;;;;;;;5054622;28;20166;-62
2022/11/11 11:12:51;;;;;;;8.90;6.73;;;;;;;;;;5054297;28;20209;-62
2022/11/11 11:15:18;;;;;;;16.97;7.80;;;;;;;;;;5054361;28;20648;-64
2022/11/11 11:17:51;;;;;;;9.60;6.27;;;;;;;;;;5054063;28;20182;-64
2022/11/11 11:20:19;;;;;;;15.33;7.23;;;;;;;;;;5054278;28;20518;-64
2022/11/11 11:22:50;;;;;;;13.27;6.77;;;;;;;;;;5035957;28;20195;-64
2022/11/11 11:25:17;;;;;;;14.30;6.73;;;;;;;;;;5053992;28;20179;-64
2022/11/11 11:27:44;;;;;;;10.97;6.03;;;;;;;;;;5054223;28;20746;-65
2022/11/11 11:30:11;;;;;;;10.70;6.10;;;;;;;;;;5053933;28;20179;-65
2022/11/11 11:32:37;;;;;;;9.33;6.20;;;;;;;;;;5053725;28;20620;-67
2022/11/11 11:35:03;;;;;;;13.77;6.37;;;;;;;;;;5053662;28;20360;-62
2022/11/11 11:37:29;;;;;;;10.93;6.20;;;;;;;;;;5053990;28;20265;-63
2022/11/11 11:40:06;;;;;;;10.33;6.50;;;;;;;;;;5054257;28;20262;-63
2022/11/11 11:42:35;;;;;;;12.97;6.40;;;;;;;;;;5054199;28;20190;-63
2022/11/11 11:45:16;;;;;;;10.73;5.87;;;;;;;;;;5054108;28;20178;-64
2022/11/11 11:47:42;;;;;;;11.40;6.50;;;;;;;;;;5054179;28;20178;-62
2022/11/11 11:50:16;;;;;;;11.00;6.07;;;;;;;;;;5035917;28;20236;-63
2022/11/11 11:52:49;;;;;;;11.10;6.53;;;;;;;;;;5054284;28;20567;-63
2022/11/11 11:55:21;;;;;;;13.43;6.37;;;;;;;;;;5035809;28;20221;-62
2022/11/11 11:57:56;;;;;;;10.57;6.10;;;;;;;;;;5053601;28;20178;-63
2022/11/11 12:00:30;;;;;;;14.13;6.70;;;;;;;;;;5035691;28;20184;-62
2022/11/11 12:03:03;;;;;;;11.60;6.37;;;;;;;;;;5053635;28;20304;-63
2022/11/11 12:05:49;;;;;;;12.70;6.43;;;;;;;;;;5035772;28;20174;-62
2022/11/11 12:08:19;;;;;;;13.97;6.53;;;;;;;;;;5035516;28;20186;-63
2022/11/11 12:10:48;;;;;;;14.97;7.07;;;;;;;;;;5053561;28;20174;-63
2022/11/11 12:13:49;;;;;;;10.40;6.93;;;;;;;;;;5035168;28;20210;-64
2022/11/11 12:16:23;;;;;;;13.10;6.37;;;;;;;;;;4973217;28;20271;-63
2022/11/11 12:19:11;;;;;;;11.53;5.90;;;;;;;;;;5041734;28;20534;-64
2022/11/11 12:21:55;;;;;;;15.20;6.20;;;;;;;;;;5035162;28;20166;-63
2022/11/11 12:24:37;;;;;;;10.00;6.00;;;;;;;;;;5053322;28;20182;-64
2022/11/11 12:27:09;;;;;;;14.87;6.80;;;;;;;;;;5053306;28;20176;-64
2022/11/11 12:29:35;;;;;;;12.77;6.83;;;;;;;;;;5053400;28;20192;-64
2022/11/11 12:32:20;;;;;;;14.30;7.07;;;;;;;;;;5053203;28;20202;-64
2022/11/11 12:35:21;;;;;;;14.87;6.50;;;;;;;;;;5052941;28;20621;-63
2022/11/11 12:38:09;;;;;;;14.57;6.70;;;;;;;;;;4972567;28;20633;-62
2022/11/11 12:40:41;;;;;;;13.07;6.40;;;;;;;;;;5031502;28;20209;-63
2022/11/11 12:43:16;;;;;;;10.03;5.93;;;;;;;;;;5053028;28;20221;-62
2022/11/11 12:45:45;;;;;;;15.23;6.17;;;;;;;;;;5035069;28;20178;-63
2022/11/11 12:48:23;;;;;;;7.30;5.67;;;;;;;;;;5034878;28;20198;-64
2022/11/11 12:51:19;;;;;;;12.27;6.30;;;;;;;;;;5052846;28;20185;-63
2022/11/11 12:54:00;;;;;;;12.07;5.93;;;;;;;;;;5018803;28;20222;-64
2022/11/11 12:56:32;;;;;;;9.63;5.47;;;;;;;;;;5052615;28;20178;-65
2022/11/11 12:59:04;;;;;;;10.10;5.57;;;;;;;;;;5058922;22;20222;-70
2022/11/11 13:01:48;;;;;;;11.57;5.90;;;;;;;;;;5056880;28;20177;-70
2022/11/11 13:04:29;;;;;;;8.33;6.00;;;;;;;;;;5057730;28;20174;-70
2022/11/11 13:07:04;;;;;;;7.90;5.63;;;;;;;;;;5055689;28;20178;-70
2022/11/11 13:09:30;;;;;;;11.37;5.97;;;;;;;;;;5056923;28;20562;-72
2022/11/11 13:12:04;;;;;;;11.97;5.63;;;;;;;;;;5055681;28;20185;-71
2022/11/11 13:14:38;;;;;;;17.00;5.80;;;;;;;;;;5057412;28;20201;-70
2022/11/11 13:17:06;;;;;;;13.63;5.70;;;;;;;;;;5058162;28;20650;-74
2022/11/11 13:19:41;;;;;;;13.33;5.23;;;;;;;;;;5056607;28;20229;-70
2022/11/11 13:22:11;;;;;;;7.63;5.13;;;;;;;;;;5058404;28;20178;-71
2022/11/11 13:24:37;;;;;;;8.00;4.93;;;;;;;;;;5057734;28;20175;-71
2022/11/11 13:27:11;;;;;;;8.60;5.07;;;;;;;;;;5057296;28;20602;-71
2022/11/11 13:29:49;;;;;;;6.07;4.77;;;;;;;;;;5058591;28;20202;-70
2022/11/11 13:32:17;;;;;;;14.37;5.30;;;;;;;;;;5056695;28;20562;-70
2022/11/11 13:34:44;;;;;;;7.60;4.60;;;;;;;;;;5058500;28;20236;-70
2022/11/11 13:37:18;;;;;;;8.00;4.90;;;;;;;;;;5056622;28;20212;-70
2022/11/11 13:39:46;;;;;;;12.07;4.77;;;;;;;;;;5056098;28;20332;-70
2022/11/11 13:42:18;;;;;;;8.87;4.50;;;;;;;;;;5054814;28;20193;-70
2022/11/11 13:44:55;;;;;;;8.53;4.33;;;;;;;;;;5056335;28;20174;-70
2022/11/11 13:47:23;;;;;;;7.73;4.33;;;;;;;;;;5056595;28;20186;-71
2022/11/11 13:49:55;;;;;;;7.17;4.50;;;;;;;;;;5055092;28;20209;-70
2022/11/11 13:52:25;;;;;;;8.07;4.87;;;;;;;;;;5054680;28;20182;-71
2022/11/11 13:54:57;;;;;;;9.93;4.67;;;;;;;;;;5055855;28;20210;-70
2022/11/11 13:57:30;;;;;;;8.30;4.93;;;;;;;;;;5056662;28;20197;-70
2022/11/11 14:00:23;;;;;;;15.67;4.63;;;;;;;;;;5054768;28;20190;-70
2022/11/11 14:03:08;;;;;;;8.30;5.07;;;;;;;;;;5055662;28;20242;-70
2022/11/11 14:05:34;;;;;;;6.60;4.67;;;;;;;;;;5054324;28;20193;-70
2022/11/11 14:08:00;;;;;;;14.07;4.50;;;;;;;;;;5055537;28;20265;-70
2022/11/11 14:10:35;;;;;;;7.63;4.50;;;;;;;;;;5054348;28;20182;-70
2022/11/11 14:13:20;;;;;;;7.80;4.47;;;;;;;;;;5054209;28;20181;-71
2022/11/11 14:15:51;;;;;;;10.50;5.40;;;;;;;;;;5056073;28;20650;-70
2022/11/11 14:18:17;;;;;;;14.53;5.40;;;;;;;;;;5055413;28;20202;-70
2022/11/11 14:20:54;;;;;;;9.23;5.27;;;;;;;;;;5055617;28;20190;-70
2022/11/11 14:23:26;;;;;;;9.17;5.43;;;;;;;;;;5055383;28;20692;-70
2022/11/11 14:26:05;;;;;;;15.80;6.10;;;;;;;;;;5055476;28;20576;-69
2022/11/11 14:28:32;;;;;;;8.10;5.07;;;;;;;;;;5055082;28;20198;-70
2022/11/11 14:31:17;;;;;;;8.50;5.43;;;;;;;;;;5055487;28;20197;-70
2022/11/11 14:33:57;;;;;;;9.63;5.53;;;;;;;;;;5055205;28;20198;-70
2022/11/11 14:36:42;;;;;;;8.27;5.33;;;;;;;;;;5055144;28;20179;-70
2022/11/11 14:39:26;;;;;;;10.90;5.93;;;;;;;;;;5055080;28;20725;-71
2022/11/11 14:41:54;;;;;;;9.80;5.93;;;;;;;;;;5054851;28;20555;-70
2022/11/11 14:44:28;;;;;;;12.50;5.70;;;;;;;;;;5055026;28;20226;-70
2022/11/11 14:47:06;;;;;;;12.70;5.93;;;;;;;;;;5054906;28;20553;-70
2022/11/11 14:49:41;;;;;;;11.37;5.70;;;;;;;;;;5054665;28;20194;-70
2022/11/11 14:52:26;;;;;;;12.47;6.33;;;;;;;;;;5053678;28;20178;-70
2022/11/11 14:55:01;;;;;;;16.07;6.30;;;;;;;;;;5053189;28;20792;-70
2022/11/11 14:57:33;;;;;;;11.70;5.60;;;;;;;;;;5054735;28;20178;-70
2022/11/11 14:59:59;;;;;;;12.03;5.83;;;;;;;;;;5053103;28;20205;-71
2022/11/11 15:02:30;;;;;;;14.87;7.03;;;;;;;;;;5054910;28;20247;-69
2022/11/11 15:05:00;;;;;;;17.30;12.50;;;;;;;;;;5054498;28;20270;-70
2022/11/11 15:07:26;;;;;;;12.57;5.60;;;;;;;;;;5053265;28;20197;-70
2022/11/11 15:10:00;;;;;;;10.80;5.20;;;;;;;;;;5053048;28;20183;-70
2022/11/11 15:12:35;;;;;;;8.67;5.37;;;;;;;;;;5053094;28;20174;-70
2022/11/11 15:15:04;;;;;;;7.93;5.70;;;;;;;;;;5052928;28;20207;-70
2022/11/11 15:17:39;;;;;;;13.70;5.90;;;;;;;;;;5052955;28;20185;-70
2022/11/11 15:20:24;;;;;;;28.47;8.00;;;;;;;;;;5052880;28;20181;-70
2022/11/11 15:22:49;;;;;;;33.83;6.70;;;;;;;;;;5054062;28;20219;-70
2022/11/11 15:25:15;;;;;;;19.67;7.30;;;;;;;;;;5052899;28;20273;-70
2022/11/11 15:27:51;;;;;;;17.10;6.87;;;;;;;;;;5054496;28;20186;-70
2022/11/11 15:30:19;;;;;;;12.33;6.00;;;;;;;;;;5052851;28;20174;-70
2022/11/11 15:32:47;;;;;;;15.07;6.73;;;;;;;;;;5052696;28;20182;-70
2022/11/11 15:35:22;;;;;;;12.10;6.67;;;;;;;;;;5053973;28;20281;-70
2022/11/11 15:37:51;;;;;;;20.83;6.20;;;;;;;;;;5052780;28;20230;-70
2022/11/11 15:40:21;;;;;;;12.10;6.20;;;;;;;;;;5052764;28;20182;-69
2022/11/11 15:42:50;;;;;;;10.73;5.70;;;;;;;;;;5052585;28;20185;-69
2022/11/11 15:45:19;;;;;;;10.70;5.30;;;;;;;;;;5055337;28;20596;-69
2022/11/11 15:47:45;;;;;;;9.37;5.70;;;;;;;;;;5060147;28;20186;-68
2022/11/11 15:50:23;;;;;;;11.53;5.20;;;;;;;;;;5052896;28;20265;-69
2022/11/11 15:52:54;;;;;;;10.93;5.67;;;;;;;;;;5053916;28;20186;-69
2022/11/11 15:55:25;;;;;;;11.57;5.70;;;;;;;;;;5052437;28;20222;-68
2022/11/11 15:57:51;;;;;;;10.93;5.63;;;;;;;;;;5052102;28;20206;-69
2022/11/11 16:00:23;;;;;;;7.47;5.23;;;;;;;;;;5052284;28;20170;-69